Time;durP1;ratioP1;P1;durP2;ratioP2;P2;SDS_P1;SDS_P2;PMS_P1;PMS_P2;Temp;Humidity;BMP_temperature;BMP_pressure;BME280_temperature;BME280_humidity;BME280_pressure;Samples;Min_cycle;Max_cycle;Signal;HPM_P1;HPM_P2
2021/05/09 00:01:34;;;;;;;6.63;4.63;;;12.70;86.50;;;;;;4940476;29;20643;-85
2021/05/09 00:03:59;;;;;;;7.10;4.13;;;12.60;86.40;;;;;;4940417;29;20192;-88
2021/05/09 00:06:25;;;;;;;7.80;4.90;;;12.60;86.50;;;;;;4957644;29;20613;-85
2021/05/09 00:08:51;;;;;;;8.37;4.13;;;12.50;86.50;;;;;;4957232;29;20179;-85
2021/05/09 00:11:16;;;;;;;6.13;4.80;;;12.50;86.80;;;;;;4939461;29;20191;-85
2021/05/09 00:13:42;;;;;;;15.03;5.50;;;12.40;86.80;;;;;;4938981;29;20183;-86
2021/05/09 00:16:08;;;;;;;9.00;6.67;;;12.30;86.20;;;;;;4939608;29;20314;-85
2021/05/09 00:18:34;;;;;;;11.27;5.27;;;12.30;86.00;;;;;;4938798;29;20557;-85
2021/05/09 00:21:02;;;;;;;10.47;7.97;;;12.30;85.70;;;;;;4939642;29;20688;-84
2021/05/09 00:23:28;;;;;;;13.20;8.70;;;12.30;85.70;;;;;;4940635;29;20514;-87
2021/05/09 00:25:53;;;;;;;8.07;4.03;;;12.30;85.70;;;;;;4957252;29;20915;-84
2021/05/09 00:28:19;;;;;;;6.50;4.87;;;12.30;85.10;;;;;;4940336;29;20182;-85
2021/05/09 00:30:45;;;;;;;6.73;3.57;;;12.30;85.70;;;;;;4940204;29;20266;-85
2021/05/09 00:33:10;;;;;;;6.70;4.20;;;12.30;85.40;;;;;;4939555;29;20219;-85
2021/05/09 00:35:36;;;;;;;3.80;3.30;;;12.30;85.20;;;;;;4938919;29;20203;-86
2021/05/09 00:38:01;;;;;;;6.50;3.57;;;12.30;85.50;;;;;;4939350;29;20210;-87
2021/05/09 00:40:27;;;;;;;5.17;3.30;;;12.20;85.60;;;;;;4939099;29;20179;-85
2021/05/09 00:42:56;;;;;;;4.27;2.80;;;12.20;85.60;;;;;;4939037;29;20204;-85
2021/05/09 00:45:22;;;;;;;4.30;2.73;;;12.10;85.90;;;;;;4938833;29;20195;-84
2021/05/09 00:47:49;;;;;;;7.87;3.33;;;12.10;85.50;;;;;;4939415;29;20430;-87
2021/05/09 00:50:15;;;;;;;5.17;3.53;;;12.10;85.60;;;;;;4939116;29;20411;-85
2021/05/09 00:52:43;;;;;;;3.83;2.90;;;12.10;85.60;;;;;;4956128;29;20407;-86
2021/05/09 00:55:11;;;;;;;3.80;2.93;;;12.10;85.90;;;;;;4939806;29;20235;-84
2021/05/09 00:57:37;;;;;;;4.70;3.37;;;12.10;85.40;;;;;;4941417;29;20435;-86
2021/05/09 01:00:07;;;;;;;5.80;3.47;;;12.00;85.70;;;;;;4939981;28;20442;-86
2021/05/09 01:02:33;;;;;;;5.43;3.37;;;12.10;85.30;;;;;;4940168;29;20422;-85
2021/05/09 01:05:00;;;;;;;4.10;3.00;;;12.10;85.10;;;;;;4940587;29;20439;-85
2021/05/09 01:07:26;;;;;;;3.70;2.80;;;12.10;85.20;;;;;;4958315;29;20407;-86
2021/05/09 01:09:52;;;;;;;4.80;2.90;;;12.20;85.10;;;;;;4940727;29;20418;-85
2021/05/09 01:12:17;;;;;;;6.83;3.40;;;12.10;85.10;;;;;;4940746;29;20418;-85
2021/05/09 01:14:43;;;;;;;24.33;11.83;;;12.10;85.50;;;;;;4940516;29;20194;-85
2021/05/09 01:17:09;;;;;;;12.63;6.27;;;12.10;85.20;;;;;;4940244;29;20676;-85
2021/05/09 01:19:35;;;;;;;13.57;6.80;;;12.10;85.10;;;;;;4939822;29;20785;-85
2021/05/09 01:22:02;;;;;;;9.70;6.10;;;12.10;85.10;;;;;;4939779;29;20545;-85
2021/05/09 01:24:28;;;;;;;11.17;6.97;;;12.10;85.30;;;;;;4940213;29;20435;-85
2021/05/09 01:26:54;;;;;;;14.47;7.23;;;12.10;85.50;;;;;;4939849;29;20422;-86
2021/05/09 01:29:20;;;;;;;6.73;4.40;;;12.00;85.80;;;;;;4939280;29;20175;-85
2021/05/09 01:31:46;;;;;;;5.90;4.20;;;12.00;85.70;;;;;;4939302;29;20175;-85
2021/05/09 01:34:12;;;;;;;7.50;4.40;;;12.00;86.00;;;;;;4938822;29;20623;-86
2021/05/09 01:36:37;;;;;;;5.63;3.83;;;11.90;86.40;;;;;;4937441;29;21001;-88
2021/05/09 01:39:04;;;;;;;3.90;3.13;;;11.80;86.40;;;;;;4944000;29;20203;-86
2021/05/09 01:41:30;;;;;;;7.13;3.80;;;11.80;86.50;;;;;;4956552;29;20179;-90
2021/05/09 01:43:55;;;;;;;4.83;3.77;;;11.80;86.80;;;;;;4956656;29;20502;-86
2021/05/09 01:46:21;;;;;;;5.17;3.77;;;11.70;86.60;;;;;;4958339;29;20171;-90
2021/05/09 01:48:46;;;;;;;5.47;3.10;;;11.80;86.70;;;;;;4960239;29;20246;-90
2021/05/09 01:51:12;;;;;;;9.67;4.27;;;11.70;87.20;;;;;;4975836;29;20183;-87
2021/05/09 01:53:37;;;;;;;6.90;3.70;;;11.70;87.10;;;;;;4974831;29;20658;-89
2021/05/09 01:56:03;;;;;;;4.00;3.40;;;11.60;87.30;;;;;;4956770;29;20183;-89
2021/05/09 01:58:29;;;;;;;6.33;4.00;;;11.60;87.40;;;;;;4957172;29;20199;-86
2021/05/09 02:00:54;;;;;;;5.07;3.10;;;11.60;87.50;;;;;;4973766;29;20589;-87
2021/05/09 02:03:20;;;;;;;5.30;3.13;;;11.50;87.70;;;;;;4956992;29;20175;-88
2021/05/09 02:05:45;;;;;;;5.63;3.40;;;11.50;87.80;;;;;;4956896;29;20207;-86
2021/05/09 02:08:14;;;;;;;4.40;3.60;;;11.50;87.90;;;;;;4956905;29;20187;-87
2021/05/09 02:10:39;;;;;;;5.50;3.30;;;11.40;88.50;;;;;;4985172;28;20189;-86
2021/05/09 02:13:05;;;;;;;5.70;3.43;;;11.40;88.70;;;;;;4959716;28;20945;-86
2021/05/09 02:15:31;;;;;;;3.73;3.10;;;11.30;89.00;;;;;;4957884;28;20203;-86
2021/05/09 02:17:57;;;;;;;6.13;3.77;;;11.30;88.70;;;;;;4958386;28;20206;-86
2021/05/09 02:20:25;;;;;;;5.40;3.60;;;11.20;88.80;;;;;;4959447;28;20793;-86
2021/05/09 02:22:50;;;;;;;4.27;3.40;;;11.10;89.00;;;;;;4957755;28;20179;-86
2021/05/09 02:25:16;;;;;;;5.57;3.77;;;11.20;88.70;;;;;;4956589;28;20528;-86
2021/05/09 02:27:42;;;;;;;5.10;3.43;;;11.10;89.20;;;;;;4956780;28;20185;-86
2021/05/09 02:30:08;;;;;;;3.40;3.20;;;11.10;89.00;;;;;;4956970;28;20237;-86
2021/05/09 02:32:34;;;;;;;5.83;3.40;;;11.20;88.70;;;;;;4956795;28;20206;-87
2021/05/09 02:34:59;;;;;;;6.67;3.27;;;11.20;88.60;;;;;;4956563;28;20824;-85
2021/05/09 02:37:25;;;;;;;6.20;3.23;;;11.20;88.50;;;;;;4973777;28;20194;-86
2021/05/09 02:39:50;;;;;;;5.30;3.50;;;11.20;88.60;;;;;;4956619;28;20648;-86
2021/05/09 02:42:16;;;;;;;7.97;4.33;;;11.20;88.70;;;;;;4956174;28;20183;-85
2021/05/09 02:44:45;;;;;;;5.47;3.70;;;11.20;88.50;;;;;;4955075;28;20202;-86
2021/05/09 02:47:27;;;;;;;7.80;3.70;;;11.20;88.60;;;;;;4954981;28;20497;-86
2021/05/09 02:49:54;;;;;;;5.63;3.40;;;11.20;88.40;;;;;;4955086;28;20457;-87
2021/05/09 02:52:19;;;;;;;4.57;3.30;;;11.20;88.30;;;;;;4955147;28;20722;-86
2021/05/09 02:54:45;;;;;;;6.40;3.23;;;11.20;88.50;;;;;;4972036;28;20493;-86
2021/05/09 02:57:10;;;;;;;5.60;3.30;;;11.20;88.30;;;;;;4955073;28;20197;-86
2021/05/09 02:59:36;;;;;;;4.63;3.30;;;11.20;88.60;;;;;;4972334;28;20273;-86
2021/05/09 03:02:01;;;;;;;4.77;3.23;;;11.20;88.70;;;;;;4955007;28;20437;-86
2021/05/09 03:04:27;;;;;;;3.90;3.33;;;11.10;88.60;;;;;;4955243;28;20199;-85
2021/05/09 03:06:52;;;;;;;4.73;3.63;;;11.10;88.70;;;;;;4955714;28;20217;-86
2021/05/09 03:09:18;;;;;;;4.20;3.10;;;11.10;88.70;;;;;;4973622;28;20273;-86
2021/05/09 03:11:43;;;;;;;4.47;3.13;;;11.10;88.70;;;;;;4956910;28;20183;-86
2021/05/09 03:14:08;;;;;;;5.50;3.67;;;11.00;89.00;;;;;;4956890;28;20290;-86
2021/05/09 03:16:34;;;;;;;5.17;3.53;;;11.00;88.80;;;;;;4956846;28;20598;-86
2021/05/09 03:18:59;;;;;;;4.40;3.47;;;11.00;89.00;;;;;;4956182;28;20202;-86
2021/05/09 03:21:25;;;;;;;6.83;3.07;;;11.00;89.00;;;;;;4958099;28;20178;-87
2021/05/09 03:23:50;;;;;;;5.47;3.30;;;11.00;89.20;;;;;;4975076;28;20183;-86
2021/05/09 03:26:16;;;;;;;4.70;3.23;;;10.90;89.00;;;;;;4959416;28;20179;-86
2021/05/09 03:28:41;;;;;;;5.60;3.37;;;10.90;89.40;;;;;;4959144;28;20186;-86
2021/05/09 03:31:07;;;;;;;5.57;3.47;;;10.90;89.40;;;;;;4959198;28;20296;-86
2021/05/09 03:33:32;;;;;;;4.80;3.27;;;10.90;89.50;;;;;;4976297;28;20202;-86
2021/05/09 03:35:58;;;;;;;5.90;3.17;;;10.80;89.30;;;;;;4958943;28;20635;-88
2021/05/09 03:38:23;;;;;;;5.80;3.90;;;10.80;89.50;;;;;;4959281;28;20217;-86
2021/05/09 03:40:49;;;;;;;4.50;3.30;;;10.80;89.30;;;;;;4975468;28;20166;-86
2021/05/09 03:43:14;;;;;;;5.63;3.00;;;10.80;89.50;;;;;;4959199;28;20167;-86
2021/05/09 03:45:40;;;;;;;5.30;3.50;;;10.80;89.90;;;;;;4958289;28;20195;-86
2021/05/09 03:48:05;;;;;;;4.10;3.60;;;10.80;90.30;;;;;;4943856;29;20191;-86
2021/05/09 03:50:31;;;;;;;9.40;3.30;;;10.70;90.50;;;;;;4937951;29;20651;-86
2021/05/09 03:52:56;;;;;;;7.47;3.20;;;10.70;90.60;;;;;;4938506;29;20175;-86
2021/05/09 03:55:22;;;;;;;6.93;3.20;;;10.70;90.60;;;;;;4938177;29;20234;-86
2021/05/09 03:57:48;;;;;;;3.73;2.90;;;10.70;90.80;;;;;;4939326;29;20179;-86
2021/05/09 04:00:14;;;;;;;4.60;3.63;;;10.70;90.60;;;;;;4939942;29;20543;-86
2021/05/09 04:02:40;;;;;;;6.43;3.30;;;10.70;90.70;;;;;;4939895;29;20314;-86
2021/05/09 04:05:06;;;;;;;3.47;2.90;;;10.80;90.60;;;;;;4956880;29;20904;-86
2021/05/09 04:07:31;;;;;;;5.80;3.60;;;10.70;90.80;;;;;;4940103;29;20175;-86
2021/05/09 04:09:56;;;;;;;5.97;3.30;;;10.80;90.60;;;;;;4940231;29;20423;-85
2021/05/09 04:12:22;;;;;;;5.20;3.00;;;10.80;90.50;;;;;;4940845;29;20175;-86
2021/05/09 04:14:48;;;;;;;5.53;2.80;;;10.80;90.60;;;;;;4941126;29;20234;-85
2021/05/09 04:17:13;;;;;;;4.10;3.20;;;10.80;90.60;;;;;;4941443;29;20664;-86
2021/05/09 04:19:39;;;;;;;4.43;3.13;;;10.80;90.80;;;;;;4941611;29;20673;-86
2021/05/09 04:22:06;;;;;;;6.90;3.70;;;10.80;90.90;;;;;;4941257;29;20171;-86
2021/05/09 04:24:31;;;;;;;7.43;3.30;;;10.80;91.30;;;;;;4941086;29;20290;-86
2021/05/09 04:26:57;;;;;;;5.00;3.20;;;10.80;91.40;;;;;;4941305;29;20442;-86
2021/05/09 04:29:22;;;;;;;4.80;3.97;;;10.80;91.80;;;;;;4940768;29;20674;-86
2021/05/09 04:31:48;;;;;;;5.90;3.30;;;10.80;92.50;;;;;;4940149;29;20179;-86
2021/05/09 04:34:13;;;;;;;5.47;3.37;;;10.80;92.40;;;;;;4940151;29;20269;-86
2021/05/09 04:36:39;;;;;;;3.80;3.30;;;10.80;92.20;;;;;;4939779;29;20180;-86
2021/05/09 04:39:04;;;;;;;7.53;3.77;;;10.80;92.40;;;;;;4957061;29;20281;-86
2021/05/09 04:41:30;;;;;;;5.53;3.20;;;10.90;92.40;;;;;;4957220;29;20215;-86
2021/05/09 04:43:57;;;;;;;6.80;3.40;;;10.90;92.60;;;;;;4939510;29;20217;-85
2021/05/09 04:46:23;;;;;;;10.17;3.50;;;11.00;92.60;;;;;;4939928;29;20846;-86
2021/05/09 04:48:49;;;;;;;4.27;3.30;;;11.00;92.50;;;;;;4938831;29;20431;-86
2021/05/09 04:51:14;;;;;;;5.60;3.53;;;11.00;92.10;;;;;;4940516;29;20434;-86
2021/05/09 04:53:40;;;;;;;6.17;3.50;;;11.10;92.10;;;;;;4938786;29;20560;-86
2021/05/09 04:56:07;;;;;;;5.50;3.43;;;11.10;91.70;;;;;;4938657;29;20183;-86
2021/05/09 04:58:36;;;;;;;4.43;3.23;;;11.10;91.90;;;;;;4938694;29;20579;-86
2021/05/09 05:01:03;;;;;;;4.93;3.53;;;11.20;91.30;;;;;;4937762;29;20443;-86
2021/05/09 05:03:29;;;;;;;4.67;3.07;;;11.20;91.40;;;;;;4938722;29;20496;-86
2021/05/09 05:05:55;;;;;;;6.70;3.17;;;11.30;90.70;;;;;;4938363;29;20513;-87
2021/05/09 05:08:21;;;;;;;3.63;3.20;;;11.30;90.70;;;;;;4938601;29;20527;-85
2021/05/09 05:10:46;;;;;;;8.03;3.20;;;11.40;90.60;;;;;;4923706;29;20465;-85
2021/05/09 05:13:31;;;;;;;6.20;3.50;;;11.40;90.40;;;;;;4939815;29;20182;-85
2021/05/09 05:15:58;;;;;;;3.47;2.80;;;11.50;90.50;;;;;;4940501;29;20630;-86
2021/05/09 05:18:25;;;;;;;5.33;3.50;;;11.50;90.80;;;;;;4940182;29;20466;-85
2021/05/09 05:20:55;;;;;;;5.20;2.80;;;11.60;90.40;;;;;;4939831;29;20419;-86
2021/05/09 05:23:21;;;;;;;4.37;3.13;;;11.70;89.80;;;;;;4940519;29;20443;-86
2021/05/09 05:25:47;;;;;;;4.00;2.80;;;11.80;89.70;;;;;;4959566;23;20506;-72
2021/05/09 05:28:12;;;;;;;6.63;2.80;;;11.90;89.50;;;;;;4972390;28;20439;-72
2021/05/09 05:30:38;;;;;;;8.00;3.40;;;12.00;89.40;;;;;;4955252;28;20215;-72
2021/05/09 05:33:07;;;;;;;4.40;3.10;;;12.10;89.30;;;;;;4955548;28;20648;-72
2021/05/09 05:35:34;;;;;;;5.07;3.30;;;12.20;89.10;;;;;;4955278;28;20384;-72
2021/05/09 05:37:59;;;;;;;3.90;3.20;;;12.20;88.60;;;;;;4955303;28;20836;-72
2021/05/09 05:40:26;;;;;;;4.20;3.13;;;12.30;88.60;;;;;;4972391;28;20418;-72
2021/05/09 05:42:52;;;;;;;11.50;3.20;;;12.30;88.10;;;;;;4954630;28;20186;-72
2021/05/09 05:45:18;;;;;;;4.27;3.03;;;12.30;88.60;;;;;;4956095;28;20477;-73
2021/05/09 05:47:45;;;;;;;5.80;3.27;;;12.40;88.70;;;;;;4954210;28;20701;-72
2021/05/09 05:50:11;;;;;;;3.90;2.90;;;12.40;88.40;;;;;;4955140;28;20450;-73
2021/05/09 05:52:37;;;;;;;4.50;3.30;;;12.50;88.40;;;;;;4955013;28;20445;-72
2021/05/09 05:55:04;;;;;;;6.70;3.20;;;12.50;88.20;;;;;;4954543;28;20421;-72
2021/05/09 05:57:29;;;;;;;4.53;3.17;;;12.50;88.10;;;;;;4955067;28;20245;-72
2021/05/09 05:59:55;;;;;;;3.83;2.73;;;12.60;88.40;;;;;;4972793;28;20461;-73
2021/05/09 06:02:23;;;;;;;4.13;3.00;;;12.60;88.30;;;;;;4954732;28;20405;-72
2021/05/09 06:04:49;;;;;;;3.30;2.77;;;12.60;87.80;;;;;;4972647;28;20233;-74
2021/05/09 06:07:15;;;;;;;5.90;3.30;;;12.70;87.80;;;;;;4972254;28;20678;-73
2021/05/09 06:09:40;;;;;;;4.77;3.07;;;12.70;88.10;;;;;;4954349;28;20174;-72
2021/05/09 06:12:07;;;;;;;3.60;2.90;;;12.80;88.20;;;;;;4971644;28;20670;-72
2021/05/09 06:14:33;;;;;;;4.57;3.27;;;12.90;87.90;;;;;;4953474;28;20179;-73
2021/05/09 06:16:59;;;;;;;4.57;3.40;;;13.00;87.70;;;;;;4953369;28;21043;-73
2021/05/09 06:19:24;;;;;;;3.83;2.60;;;13.20;88.10;;;;;;4953682;28;20202;-73
2021/05/09 06:21:50;;;;;;;4.93;3.10;;;13.40;87.00;;;;;;4970610;28;20546;-74
2021/05/09 06:24:15;;;;;;;5.57;3.17;;;13.50;86.50;;;;;;4953085;28;20463;-74
2021/05/09 06:26:41;;;;;;;3.00;2.60;;;13.60;86.10;;;;;;4953861;28;20183;-73
2021/05/09 06:29:07;;;;;;;3.70;3.03;;;13.80;85.70;;;;;;4970776;28;20174;-75
2021/05/09 06:31:33;;;;;;;3.77;2.60;;;13.90;86.10;;;;;;4953517;28;20201;-71
2021/05/09 06:33:59;;;;;;;4.80;3.27;;;14.10;85.70;;;;;;4954040;28;20454;-71
2021/05/09 06:36:24;;;;;;;5.07;2.67;;;14.30;85.70;;;;;;4970421;28;20179;-71
2021/05/09 06:38:50;;;;;;;6.20;3.30;;;14.40;85.60;;;;;;4953585;28;20501;-72
2021/05/09 06:41:18;;;;;;;3.90;2.60;;;14.60;85.60;;;;;;4953732;28;20195;-71
2021/05/09 06:43:44;;;;;;;3.50;2.40;;;14.80;84.40;;;;;;4953395;28;20578;-72
2021/05/09 06:46:09;;;;;;;3.17;2.60;;;15.00;84.10;;;;;;4970741;28;20737;-72
2021/05/09 06:48:35;;;;;;;5.87;3.10;;;15.20;85.20;;;;;;4952978;28;20432;-73
2021/05/09 06:51:02;;;;;;;5.83;3.30;;;15.40;83.70;;;;;;4953043;28;20198;-74
2021/05/09 06:53:28;;;;;;;3.97;2.50;;;15.60;83.80;;;;;;4953303;28;20182;-74
2021/05/09 06:55:56;;;;;;;4.40;2.90;;;15.70;83.20;;;;;;4953497;28;20477;-74
2021/05/09 06:58:24;;;;;;;3.67;2.60;;;15.90;82.50;;;;;;4953259;28;20733;-74
2021/05/09 07:00:51;;;;;;;8.47;3.00;;;16.00;83.00;;;;;;4954326;28;20508;-75
2021/05/09 07:03:17;;;;;;;4.67;2.50;;;16.20;82.90;;;;;;4957292;28;20502;-73
2021/05/09 07:05:43;;;;;;;4.40;2.70;;;16.40;82.20;;;;;;4955533;28;20410;-72
2021/05/09 07:08:09;;;;;;;3.47;2.70;;;16.50;81.80;;;;;;4950012;23;20643;-77
2021/05/09 07:10:36;;;;;;;5.20;2.43;;;16.70;81.10;;;;;;4953399;29;20443;-75
2021/05/09 07:13:02;;;;;;;4.37;2.63;;;16.90;81.60;;;;;;4954146;29;20193;-77
2021/05/09 07:15:35;;;;;;;4.23;2.30;;;17.00;80.60;;;;;;4954076;29;20410;-78
2021/05/09 07:18:06;;;;;;;4.20;2.87;;;17.20;79.60;;;;;;4967798;28;20946;-75
2021/05/09 07:20:34;;;;;;;3.97;2.50;;;17.30;80.00;;;;;;4954479;29;20779;-75
2021/05/09 07:23:01;;;;;;;3.17;2.37;;;17.40;78.80;;;;;;4954948;29;20455;-75
2021/05/09 07:25:26;;;;;;;3.27;2.30;;;17.60;80.70;;;;;;4954216;29;20831;-75
2021/05/09 07:27:52;;;;;;;2.63;2.47;;;17.80;79.80;;;;;;4953370;29;20704;-76
2021/05/09 07:30:18;;;;;;;3.60;2.27;;;17.90;79.70;;;;;;4953710;29;20210;-78
2021/05/09 07:32:44;;;;;;;4.10;2.80;;;18.00;78.30;;;;;;4953843;29;20178;-77
2021/05/09 07:35:10;;;;;;;3.93;2.67;;;18.10;77.80;;;;;;4953419;29;20419;-77
2021/05/09 07:37:36;;;;;;;3.23;2.23;;;18.30;78.50;;;;;;4953408;29;20179;-77
2021/05/09 07:40:03;;;;;;;3.80;2.33;;;18.40;77.30;;;;;;4953781;29;21028;-76
2021/05/09 07:42:29;;;;;;;4.57;3.00;;;18.50;78.50;;;;;;4953500;29;20443;-75
2021/05/09 07:44:59;;;;;;;3.10;2.27;;;18.60;78.50;;;;;;4955063;28;20426;-75
2021/05/09 07:47:26;;;;;;;2.83;2.23;;;18.80;76.90;;;;;;4953757;28;20175;-76
2021/05/09 07:49:51;;;;;;;3.20;2.37;;;19.00;77.50;;;;;;4952265;29;20490;-75
2021/05/09 07:52:17;;;;;;;2.20;2.00;;;19.10;76.60;;;;;;4954817;29;20434;-75
2021/05/09 07:54:42;;;;;;;2.77;2.20;;;19.20;76.20;;;;;;4954417;29;20596;-78
2021/05/09 07:57:08;;;;;;;2.40;2.03;;;19.20;75.30;;;;;;4954247;29;20278;-76
2021/05/09 07:59:34;;;;;;;3.40;2.30;;;19.30;75.50;;;;;;4952822;29;20226;-76
2021/05/09 08:02:01;;;;;;;3.70;2.20;;;19.50;75.40;;;;;;4953269;29;20195;-77
2021/05/09 08:04:26;;;;;;;3.20;2.40;;;19.60;75.60;;;;;;4953338;29;20423;-76
2021/05/09 08:06:52;;;;;;;3.10;2.23;;;19.70;74.90;;;;;;4952558;29;20418;-75
2021/05/09 08:09:18;;;;;;;4.27;1.93;;;19.70;74.30;;;;;;4952706;28;20231;-76
2021/05/09 08:11:44;;;;;;;3.40;2.20;;;19.80;74.40;;;;;;4952610;29;20203;-76
2021/05/09 08:14:10;;;;;;;3.17;1.90;;;19.80;74.60;;;;;;4954570;28;20419;-77
2021/05/09 08:16:35;;;;;;;7.00;2.63;;;19.90;73.90;;;;;;4953764;29;20434;-77
2021/05/09 08:19:01;;;;;;;2.70;2.03;;;20.00;74.00;;;;;;4968585;28;20199;-76
2021/05/09 08:21:26;;;;;;;3.10;2.30;;;20.00;74.00;;;;;;4955338;28;20198;-78
2021/05/09 08:23:52;;;;;;;4.00;2.30;;;20.10;74.50;;;;;;4953578;29;20179;-75
2021/05/09 08:26:18;;;;;;;2.40;2.07;;;20.10;74.00;;;;;;4970419;28;20216;-76
2021/05/09 08:28:43;;;;;;;7.80;2.30;;;20.30;73.50;;;;;;4955642;28;20266;-77
2021/05/09 08:31:11;;;;;;;3.43;2.23;;;20.40;73.30;;;;;;4953939;29;20194;-77
2021/05/09 08:33:37;;;;;;;4.30;2.53;;;20.40;73.50;;;;;;4955352;28;20179;-76
2021/05/09 08:36:03;;;;;;;7.47;2.20;;;20.60;74.00;;;;;;4970596;28;20434;-78
2021/05/09 08:38:29;;;;;;;3.60;1.67;;;20.70;72.70;;;;;;4955227;28;20251;-77
2021/05/09 08:40:55;;;;;;;2.63;2.00;;;20.90;74.90;;;;;;4954000;29;20808;-76
2021/05/09 08:43:20;;;;;;;3.33;1.90;;;21.00;73.70;;;;;;4953804;29;20705;-79
2021/05/09 08:45:46;;;;;;;2.00;1.60;;;21.10;73.40;;;;;;4969443;28;20179;-77
2021/05/09 08:48:18;;;;;;;3.27;1.90;;;21.10;74.20;;;;;;4953191;29;20543;-75
2021/05/09 08:50:45;;;;;;;1.93;1.80;;;21.10;73.70;;;;;;4951217;29;20195;-77
2021/05/09 08:53:11;;;;;;;2.90;2.23;;;21.20;75.00;;;;;;4951197;29;20513;-76
2021/05/09 08:55:39;;;;;;;3.53;2.27;;;21.30;74.00;;;;;;4953928;29;20522;-74
2021/05/09 08:58:05;;;;;;;2.20;2.00;;;21.40;73.40;;;;;;4953906;29;20775;-74
2021/05/09 09:00:30;;;;;;;1.90;1.90;;;21.60;73.20;;;;;;4953594;29;20422;-74
2021/05/09 09:02:59;;;;;;;5.47;2.30;;;21.70;73.20;;;;;;4953357;29;20179;-74
2021/05/09 09:05:42;;;;;;;3.70;2.07;;;21.70;73.10;;;;;;4953628;29;20250;-74
2021/05/09 09:08:09;;;;;;;2.40;1.80;;;21.70;71.70;;;;;;4953150;29;20474;-74
2021/05/09 09:10:45;;;;;;;2.67;2.00;;;21.70;72.40;;;;;;4953276;29;20438;-74
2021/05/09 09:13:22;;;;;;;2.20;1.80;;;21.70;72.50;;;;;;4953438;29;20417;-74
2021/05/09 09:15:58;;;;;;;2.70;1.90;;;21.90;74.70;;;;;;4953093;29;20469;-76
2021/05/09 09:18:26;;;;;;;2.90;2.00;;;22.10;73.80;;;;;;4953855;29;20462;-74
2021/05/09 09:20:52;;;;;;;2.70;2.20;;;22.30;74.30;;;;;;4953501;28;21035;-75
2021/05/09 09:23:17;;;;;;;3.00;2.47;;;22.30;71.30;;;;;;4952344;29;20415;-75
2021/05/09 09:25:43;;;;;;;3.10;1.90;;;22.30;72.20;;;;;;4954712;28;20206;-75
2021/05/09 09:28:09;;;;;;;4.40;2.30;;;22.40;72.30;;;;;;4952826;29;20176;-76
2021/05/09 09:30:49;;;;;;;5.73;2.40;;;22.40;74.10;;;;;;4952878;29;20198;-76
2021/05/09 09:33:18;;;;;;;2.90;2.40;;;22.50;71.40;;;;;;4953236;29;20181;-77
2021/05/09 09:35:50;;;;;;;3.80;2.20;;;22.40;71.70;;;;;;4954776;29;20407;-77
2021/05/09 09:38:32;;;;;;;3.37;2.50;;;22.50;73.60;;;;;;4953764;29;20462;-77
2021/05/09 09:41:13;;;;;;;2.60;2.00;;;22.70;72.40;;;;;;4953646;29;20962;-76
2021/05/09 09:43:41;;;;;;;3.40;2.27;;;22.80;71.40;;;;;;4953988;29;20425;-79
2021/05/09 09:46:28;;;;;;;3.00;2.30;;;22.80;72.40;;;;;;4955161;28;20419;-77
2021/05/09 09:49:00;;;;;;;2.63;2.10;;;22.90;71.00;;;;;;4953732;29;20411;-77
2021/05/09 09:51:26;;;;;;;2.87;2.20;;;23.00;70.80;;;;;;4936030;29;20488;-77
2021/05/09 09:53:53;;;;;;;2.20;1.80;;;23.10;71.20;;;;;;4949274;29;20490;-80
2021/05/09 09:56:26;;;;;;;2.93;2.00;;;23.10;70.60;;;;;;4954475;29;20408;-77
2021/05/09 09:59:07;;;;;;;4.50;1.90;;;23.40;71.30;;;;;;4953625;29;20455;-76
2021/05/09 10:01:37;;;;;;;3.90;2.10;;;23.50;69.40;;;;;;4952073;29;20443;-75
2021/05/09 10:04:09;;;;;;;3.10;2.17;;;23.50;69.90;;;;;;4951671;29;20461;-75
2021/05/09 10:06:40;;;;;;;6.33;2.27;;;23.70;71.00;;;;;;4953397;29;20411;-78
2021/05/09 10:09:07;;;;;;;3.70;2.00;;;23.90;70.90;;;;;;4954195;28;20534;-77
2021/05/09 10:11:35;;;;;;;4.73;2.20;;;24.10;70.70;;;;;;4936937;29;20439;-78
2021/05/09 10:14:06;;;;;;;3.53;2.20;;;24.30;69.90;;;;;;4937037;29;20426;-77
2021/05/09 10:16:41;;;;;;;3.00;1.80;;;24.40;70.60;;;;;;4937307;29;20477;-75
2021/05/09 10:19:14;;;;;;;3.67;2.23;;;24.40;69.70;;;;;;4952275;29;20449;-75
2021/05/09 10:21:42;;;;;;;2.63;1.63;;;24.40;69.40;;;;;;4935788;29;20443;-75
2021/05/09 10:24:22;;;;;;;3.73;2.23;;;24.50;69.60;;;;;;4952455;29;20410;-77
2021/05/09 10:27:06;;;;;;;2.40;2.00;;;24.60;68.70;;;;;;4935668;29;20441;-76
2021/05/09 10:29:36;;;;;;;3.83;2.20;;;24.60;67.90;;;;;;4935626;29;20803;-75
2021/05/09 10:32:21;;;;;;;2.33;2.07;;;24.60;68.00;;;;;;4952667;29;20507;-75
2021/05/09 10:37:50;;;;;;;2.30;2.10;;;24.80;69.20;;;;;;4957212;29;20410;-76
2021/05/09 10:40:26;;;;;;;3.00;2.10;;;25.20;70.20;;;;;;4918814;29;20994;-76
2021/05/09 10:43:04;;;;;;;2.80;1.80;;;25.40;68.70;;;;;;4939318;29;21204;-75
2021/05/09 10:45:36;;;;;;;2.20;2.00;;;25.60;67.90;;;;;;4937154;29;20419;-76
2021/05/09 10:48:21;;;;;;;4.00;1.93;;;25.70;68.70;;;;;;4939610;29;20418;-76
2021/05/09 10:51:11;;;;;;;2.47;2.07;;;25.80;67.20;;;;;;4939313;29;20438;-73
2021/05/09 10:53:37;;;;;;;3.90;1.80;;;25.60;66.30;;;;;;4941420;29;20426;-77
2021/05/09 10:56:05;;;;;;;3.17;2.23;;;25.60;67.50;;;;;;4956488;29;20419;-77
2021/05/09 10:58:45;;;;;;;2.77;2.20;;;25.80;70.00;;;;;;4939595;29;20761;-76
2021/05/09 11:01:32;;;;;;;4.50;2.13;;;26.20;67.90;;;;;;4939275;29;20961;-76
2021/05/09 11:04:03;;;;;;;3.27;2.13;;;26.10;67.20;;;;;;4954644;29;20438;-77
2021/05/09 11:06:29;;;;;;;5.00;1.97;;;26.20;66.20;;;;;;4956632;29;20418;-78
2021/05/09 11:08:56;;;;;;;3.80;2.07;;;26.00;65.80;;;;;;4938826;29;20815;-77
2021/05/09 11:11:32;;;;;;;2.07;1.70;;;26.10;67.30;;;;;;4938271;29;20446;-75
2021/05/09 11:14:01;;;;;;;3.20;2.07;;;26.30;66.60;;;;;;4939423;29;20569;-76
2021/05/09 11:16:32;;;;;;;2.53;1.90;;;26.40;66.70;;;;;;4944847;28;20834;-75
2021/05/09 11:18:59;;;;;;;3.10;2.30;;;26.30;66.10;;;;;;4953664;28;21127;-75
2021/05/09 11:21:27;;;;;;;2.67;1.93;;;26.30;67.50;;;;;;4958339;28;20629;-75
2021/05/09 11:23:53;;;;;;;3.03;1.60;;;26.30;66.90;;;;;;4952474;28;20485;-74
2021/05/09 11:26:23;;;;;;;3.13;1.80;;;26.50;69.20;;;;;;4941153;29;20423;-76
2021/05/09 11:29:09;;;;;;;4.60;2.40;;;26.70;68.20;;;;;;4940447;29;20550;-76
2021/05/09 11:31:36;;;;;;;2.10;1.97;;;26.90;68.00;;;;;;4939758;29;20434;-77
2021/05/09 11:34:02;;;;;;;4.77;2.47;;;27.00;66.40;;;;;;4941450;29;20414;-77
2021/05/09 11:36:30;;;;;;;1.90;1.90;;;27.20;67.20;;;;;;4944921;28;20432;-77
2021/05/09 11:39:22;;;;;;;2.57;2.07;;;27.30;66.40;;;;;;4975994;28;20449;-77
2021/05/09 11:41:58;;;;;;;3.23;1.90;;;27.30;67.50;;;;;;4958059;28;20949;-76
2021/05/09 11:44:47;;;;;;;2.50;2.10;;;27.30;65.50;;;;;;4944010;28;20966;-75
2021/05/09 11:47:14;;;;;;;2.47;1.93;;;27.50;67.40;;;;;;4947078;29;20407;-75
2021/05/09 11:49:42;;;;;;;2.90;2.27;;;27.70;67.40;;;;;;4953959;28;20504;-77
2021/05/09 11:52:11;;;;;;;2.57;2.10;;;27.70;66.50;;;;;;4956848;28;20519;-75
2021/05/09 11:54:46;;;;;;;5.87;1.93;;;27.60;66.70;;;;;;4938563;29;20418;-75
2021/05/09 11:57:12;;;;;;;3.80;2.20;;;27.70;67.30;;;;;;4938608;29;20414;-75
2021/05/09 11:59:42;;;;;;;2.60;1.90;;;28.00;67.20;;;;;;4938522;29;20450;-78
2021/05/09 12:02:29;;;;;;;4.90;2.30;;;28.20;67.10;;;;;;4937641;29;20446;-76
2021/05/09 12:05:17;;;;;;;2.20;2.00;;;28.00;66.00;;;;;;4940558;29;20431;-77
2021/05/09 12:07:45;;;;;;;3.60;2.20;;;27.90;67.30;;;;;;4957363;28;21056;-76
2021/05/09 12:10:41;;;;;;;3.03;2.17;;;27.90;66.60;;;;;;4940074;29;20435;-76
2021/05/09 12:13:13;;;;;;;3.57;2.10;;;28.10;66.70;;;;;;4935301;29;20944;-75
2021/05/09 12:15:40;;;;;;;3.33;2.47;;;28.40;67.50;;;;;;4956770;28;20432;-77
2021/05/09 12:18:31;;;;;;;4.00;2.20;;;28.60;67.30;;;;;;4942039;28;20419;-77
2021/05/09 12:21:08;;;;;;;2.67;2.07;;;28.70;65.90;;;;;;4940652;28;20430;-77
2021/05/09 12:23:34;;;;;;;2.60;2.23;;;28.60;65.30;;;;;;4937208;29;20415;-78
2021/05/09 12:26:09;;;;;;;3.57;2.37;;;28.70;65.60;;;;;;4936816;29;20823;-77
2021/05/09 12:28:35;;;;;;;3.33;2.20;;;28.70;65.80;;;;;;4937658;29;20476;-77
2021/05/09 12:31:14;;;;;;;3.20;2.17;;;28.80;66.20;;;;;;4937947;29;20462;-75
2021/05/09 12:33:40;;;;;;;3.00;2.27;;;28.90;66.10;;;;;;4936298;29;20182;-75
2021/05/09 12:36:17;;;;;;;2.37;1.90;;;29.00;65.90;;;;;;4937204;29;20429;-77
2021/05/09 12:38:43;;;;;;;2.90;1.83;;;29.30;67.20;;;;;;4936802;29;20458;-76
2021/05/09 12:41:12;;;;;;;4.10;2.60;;;29.40;67.10;;;;;;4934877;29;20439;-76
2021/05/09 12:43:56;;;;;;;5.70;2.17;;;29.30;65.50;;;;;;4936268;29;20427;-77
2021/05/09 12:46:39;;;;;;;3.10;2.40;;;29.20;65.60;;;;;;4944094;29;21175;-79
2021/05/09 12:49:24;;;;;;;3.27;2.00;;;29.30;65.40;;;;;;4931608;29;20434;-75
2021/05/09 12:52:02;;;;;;;3.70;2.30;;;29.20;65.50;;;;;;4929791;28;20433;-74
2021/05/09 12:54:34;;;;;;;3.10;2.03;;;29.40;65.40;;;;;;4930019;29;20430;-75